Aviation Digital Data Service (ADDS)

Output produced by METARs form (1716 UTC 21 September 2019)
found at http://aviationweather.gov/metar/data/
 
TAF EPDA 211700Z 2118/2203 22005KT CAVOK 
     BECMG 2120/2123 3000 BR 
     TEMPO 2121/2203 0500 FG BKN003